sensor_id;sensor_type;location;lat;lon;timestamp;temperature;humidity
34135;DHT22;20410;55.578;12.968;2022-07-06T00:01:48;15.80;99.90
34135;DHT22;20410;55.578;12.968;2022-07-06T00:04:15;15.70;99.90
34135;DHT22;20410;55.578;12.968;2022-07-06T00:06:41;15.70;99.90
34135;DHT22;20410;55.578;12.968;2022-07-06T00:09:07;15.70;99.90
34135;DHT22;20410;55.578;12.968;2022-07-06T00:11:32;15.70;99.90
34135;DHT22;20410;55.578;12.968;2022-07-06T00:13:58;15.70;99.90
34135;DHT22;20410;55.578;12.968;2022-07-06T00:16:24;15.70;99.90
34135;DHT22;20410;55.578;12.968;2022-07-06T00:18:50;15.70;99.90
34135;DHT22;20410;55.578;12.968;2022-07-06T00:21:16;15.70;99.90
34135;DHT22;20410;55.578;12.968;2022-07-06T00:23:42;15.60;99.90
34135;DHT22;20410;55.578;12.968;2022-07-06T00:26:08;15.60;99.90
34135;DHT22;20410;55.578;12.968;2022-07-06T00:28:33;15.60;99.90
34135;DHT22;20410;55.578;12.968;2022-07-06T00:30:59;15.60;99.90
34135;DHT22;20410;55.578;12.968;2022-07-06T00:33:25;15.60;99.90
34135;DHT22;20410;55.578;12.968;2022-07-06T00:35:50;15.50;99.90
34135;DHT22;20410;55.578;12.968;2022-07-06T00:38:16;15.50;99.90
34135;DHT22;20410;55.578;12.968;2022-07-06T00:40:42;15.50;99.90
34135;DHT22;20410;55.578;12.968;2022-07-06T00:43:08;15.50;99.90
34135;DHT22;20410;55.578;12.968;2022-07-06T00:45:33;15.50;99.90
34135;DHT22;20410;55.578;12.968;2022-07-06T00:47:59;15.50;99.90
34135;DHT22;20410;55.578;12.968;2022-07-06T00:50:25;15.50;99.90
34135;DHT22;20410;55.578;12.968;2022-07-06T00:53:05;15.50;99.90
34135;DHT22;20410;55.578;12.968;2022-07-06T00:55:36;15.50;99.90
34135;DHT22;20410;55.578;12.968;2022-07-06T00:58:05;15.50;99.90
34135;DHT22;20410;55.578;12.968;2022-07-06T01:00:31;15.50;99.90
34135;DHT22;20410;55.578;12.968;2022-07-06T01:02:57;15.50;99.90
34135;DHT22;20410;55.578;12.968;2022-07-06T01:05:24;15.50;99.90
34135;DHT22;20410;55.578;12.968;2022-07-06T01:07:51;15.50;99.90
34135;DHT22;20410;55.578;12.968;2022-07-06T01:10:19;15.50;99.90
34135;DHT22;20410;55.578;12.968;2022-07-06T01:12:45;15.40;99.90
34135;DHT22;20410;55.578;12.968;2022-07-06T01:15:14;15.40;99.90
34135;DHT22;20410;55.578;12.968;2022-07-06T01:17:40;15.50;99.90
34135;DHT22;20410;55.578;12.968;2022-07-06T01:20:12;15.40;99.90
34135;DHT22;20410;55.578;12.968;2022-07-06T01:22:38;15.40;99.90
34135;DHT22;20410;55.578;12.968;2022-07-06T01:25:05;15.40;99.90
34135;DHT22;20410;55.578;12.968;2022-07-06T01:27:32;15.40;99.90
34135;DHT22;20410;55.578;12.968;2022-07-06T01:30:00;15.40;99.90
34135;DHT22;20410;55.578;12.968;2022-07-06T01:32:25;15.30;99.90
34135;DHT22;20410;55.578;12.968;2022-07-06T01:34:51;15.30;99.90
34135;DHT22;20410;55.578;12.968;2022-07-06T01:37:16;15.30;99.90
34135;DHT22;20410;55.578;12.968;2022-07-06T01:39:42;15.20;99.90
34135;DHT22;20410;55.578;12.968;2022-07-06T01:42:08;15.30;99.90
34135;DHT22;20410;55.578;12.968;2022-07-06T01:44:33;15.30;99.90
34135;DHT22;20410;55.578;12.968;2022-07-06T01:46:59;15.30;99.90
34135;DHT22;20410;55.578;12.968;2022-07-06T01:49:24;15.20;99.90
34135;DHT22;20410;55.578;12.968;2022-07-06T01:51:50;15.20;99.90
34135;DHT22;20410;55.578;12.968;2022-07-06T01:54:15;15.20;99.90
34135;DHT22;20410;55.578;12.968;2022-07-06T01:56:41;15.20;99.90
34135;DHT22;20410;55.578;12.968;2022-07-06T01:59:06;15.20;99.90
34135;DHT22;20410;55.578;12.968;2022-07-06T02:01:32;15.20;99.90
34135;DHT22;20410;55.578;12.968;2022-07-06T02:03:57;15.20;99.90
34135;DHT22;20410;55.578;12.968;2022-07-06T02:06:23;15.10;99.90
34135;DHT22;20410;55.578;12.968;2022-07-06T02:08:49;15.10;99.90
34135;DHT22;20410;55.578;12.968;2022-07-06T02:11:17;15.10;99.90
34135;DHT22;20410;55.578;12.968;2022-07-06T02:13:42;15.10;99.90
34135;DHT22;20410;55.578;12.968;2022-07-06T02:16:08;15.10;99.90
34135;DHT22;20410;55.578;12.968;2022-07-06T02:18:34;15.20;99.90
34135;DHT22;20410;55.578;12.968;2022-07-06T02:20:59;15.10;99.90
34135;DHT22;20410;55.578;12.968;2022-07-06T02:23:25;15.10;99.90
34135;DHT22;20410;55.578;12.968;2022-07-06T02:25:51;15.10;99.90
34135;DHT22;20410;55.578;12.968;2022-07-06T02:28:17;15.10;99.90
34135;DHT22;20410;55.578;12.968;2022-07-06T02:30:42;15.10;99.90
34135;DHT22;20410;55.578;12.968;2022-07-06T02:33:08;15.10;99.90
34135;DHT22;20410;55.578;12.968;2022-07-06T02:35:34;15.20;99.90
34135;DHT22;20410;55.578;12.968;2022-07-06T02:37:59;15.10;99.90
34135;DHT22;20410;55.578;12.968;2022-07-06T02:40:25;15.10;99.90
34135;DHT22;20410;55.578;12.968;2022-07-06T02:42:50;15.10;99.90
34135;DHT22;20410;55.578;12.968;2022-07-06T02:45:16;15.00;99.90
34135;DHT22;20410;55.578;12.968;2022-07-06T02:47:41;15.00;99.90
34135;DHT22;20410;55.578;12.968;2022-07-06T02:50:07;15.00;99.90
34135;DHT22;20410;55.578;12.968;2022-07-06T02:52:33;15.00;99.90
34135;DHT22;20410;55.578;12.968;2022-07-06T02:54:58;15.00;99.90
34135;DHT22;20410;55.578;12.968;2022-07-06T02:57:24;15.00;99.90
34135;DHT22;20410;55.578;12.968;2022-07-06T02:59:49;15.10;99.90
34135;DHT22;20410;55.578;12.968;2022-07-06T03:02:18;15.10;99.90
34135;DHT22;20410;55.578;12.968;2022-07-06T03:04:44;15.10;99.90
34135;DHT22;20410;55.578;12.968;2022-07-06T03:07:09;15.20;99.90
34135;DHT22;20410;55.578;12.968;2022-07-06T03:09:35;15.10;99.90
34135;DHT22;20410;55.578;12.968;2022-07-06T03:12:01;15.20;99.90
34135;DHT22;20410;55.578;12.968;2022-07-06T03:14:27;15.20;99.90
34135;DHT22;20410;55.578;12.968;2022-07-06T03:16:53;15.10;99.90
34135;DHT22;20410;55.578;12.968;2022-07-06T03:19:18;15.10;99.90
34135;DHT22;20410;55.578;12.968;2022-07-06T03:21:44;15.10;99.90
34135;DHT22;20410;55.578;12.968;2022-07-06T03:24:10;15.10;99.90
34135;DHT22;20410;55.578;12.968;2022-07-06T03:26:36;15.00;99.90
34135;DHT22;20410;55.578;12.968;2022-07-06T03:29:01;15.00;99.90
34135;DHT22;20410;55.578;12.968;2022-07-06T03:31:27;14.90;99.90
34135;DHT22;20410;55.578;12.968;2022-07-06T03:33:53;14.90;99.90
34135;DHT22;20410;55.578;12.968;2022-07-06T03:36:18;15.00;99.90
34135;DHT22;20410;55.578;12.968;2022-07-06T03:38:44;14.90;99.90
34135;DHT22;20410;55.578;12.968;2022-07-06T03:41:09;15.00;99.90
34135;DHT22;20410;55.578;12.968;2022-07-06T03:43:35;14.90;99.90
34135;DHT22;20410;55.578;12.968;2022-07-06T03:46:01;15.00;99.90
34135;DHT22;20410;55.578;12.968;2022-07-06T03:48:26;15.00;99.90
34135;DHT22;20410;55.578;12.968;2022-07-06T03:50:52;15.10;99.90
34135;DHT22;20410;55.578;12.968;2022-07-06T03:53:18;15.20;99.90
34135;DHT22;20410;55.578;12.968;2022-07-06T03:55:44;15.30;99.90
34135;DHT22;20410;55.578;12.968;2022-07-06T03:58:29;15.30;99.90
34135;DHT22;20410;55.578;12.968;2022-07-06T04:00:55;15.40;99.90
34135;DHT22;20410;55.578;12.968;2022-07-06T04:03:20;15.50;99.90
34135;DHT22;20410;55.578;12.968;2022-07-06T04:05:46;15.60;99.90
34135;DHT22;20410;55.578;12.968;2022-07-06T04:08:12;15.60;99.90
34135;DHT22;20410;55.578;12.968;2022-07-06T04:10:37;15.50;99.90
34135;DHT22;20410;55.578;12.968;2022-07-06T04:13:03;15.50;99.90
34135;DHT22;20410;55.578;12.968;2022-07-06T04:15:28;15.50;99.90
34135;DHT22;20410;55.578;12.968;2022-07-06T04:17:54;15.50;99.90
34135;DHT22;20410;55.578;12.968;2022-07-06T04:20:21;15.40;99.90
34135;DHT22;20410;55.578;12.968;2022-07-06T04:22:47;15.50;99.90
34135;DHT22;20410;55.578;12.968;2022-07-06T04:25:13;15.40;99.90
34135;DHT22;20410;55.578;12.968;2022-07-06T04:27:39;15.40;99.90
34135;DHT22;20410;55.578;12.968;2022-07-06T04:30:05;15.50;99.90
34135;DHT22;20410;55.578;12.968;2022-07-06T04:32:31;15.50;99.90
34135;DHT22;20410;55.578;12.968;2022-07-06T04:34:57;15.50;99.90
34135;DHT22;20410;55.578;12.968;2022-07-06T04:37:23;15.50;99.90
34135;DHT22;20410;55.578;12.968;2022-07-06T04:39:49;15.40;99.90
34135;DHT22;20410;55.578;12.968;2022-07-06T04:42:14;15.50;99.90
34135;DHT22;20410;55.578;12.968;2022-07-06T04:44:40;15.50;99.90
34135;DHT22;20410;55.578;12.968;2022-07-06T04:47:06;15.60;99.90
34135;DHT22;20410;55.578;12.968;2022-07-06T04:49:32;15.60;99.90
34135;DHT22;20410;55.578;12.968;2022-07-06T04:51:57;15.70;99.90
34135;DHT22;20410;55.578;12.968;2022-07-06T04:54:23;15.70;99.90
34135;DHT22;20410;55.578;12.968;2022-07-06T04:56:49;15.80;99.90
34135;DHT22;20410;55.578;12.968;2022-07-06T04:59:15;15.90;99.90
34135;DHT22;20410;55.578;12.968;2022-07-06T05:01:40;16.00;99.90
34135;DHT22;20410;55.578;12.968;2022-07-06T05:04:07;16.00;99.90
34135;DHT22;20410;55.578;12.968;2022-07-06T05:06:32;16.10;99.90
34135;DHT22;20410;55.578;12.968;2022-07-06T05:08:58;16.20;99.90
34135;DHT22;20410;55.578;12.968;2022-07-06T05:11:25;16.20;99.90
34135;DHT22;20410;55.578;12.968;2022-07-06T05:13:51;16.30;99.90
34135;DHT22;20410;55.578;12.968;2022-07-06T05:16:16;16.30;99.90
34135;DHT22;20410;55.578;12.968;2022-07-06T05:18:42;16.40;99.90
34135;DHT22;20410;55.578;12.968;2022-07-06T05:21:07;16.60;99.90
34135;DHT22;20410;55.578;12.968;2022-07-06T05:23:33;16.60;99.90
34135;DHT22;20410;55.578;12.968;2022-07-06T05:25:59;16.60;99.90
34135;DHT22;20410;55.578;12.968;2022-07-06T05:28:24;16.60;99.90
34135;DHT22;20410;55.578;12.968;2022-07-06T05:30:50;16.70;99.90
34135;DHT22;20410;55.578;12.968;2022-07-06T05:33:16;16.80;99.90
34135;DHT22;20410;55.578;12.968;2022-07-06T05:35:41;16.80;99.90
34135;DHT22;20410;55.578;12.968;2022-07-06T05:38:07;16.80;99.90
34135;DHT22;20410;55.578;12.968;2022-07-06T05:40:32;16.80;99.90
34135;DHT22;20410;55.578;12.968;2022-07-06T05:42:59;16.90;99.90
34135;DHT22;20410;55.578;12.968;2022-07-06T05:45:24;16.90;99.90
34135;DHT22;20410;55.578;12.968;2022-07-06T05:47:50;17.00;99.90
34135;DHT22;20410;55.578;12.968;2022-07-06T05:50:34;17.00;99.90
34135;DHT22;20410;55.578;12.968;2022-07-06T05:53:02;17.10;99.90
34135;DHT22;20410;55.578;12.968;2022-07-06T05:55:28;17.10;99.90
34135;DHT22;20410;55.578;12.968;2022-07-06T05:57:54;17.10;99.90
34135;DHT22;20410;55.578;12.968;2022-07-06T06:00:21;17.20;99.90
34135;DHT22;20410;55.578;12.968;2022-07-06T06:02:47;17.20;99.90
34135;DHT22;20410;55.578;12.968;2022-07-06T06:05:14;17.20;99.90
34135;DHT22;20410;55.578;12.968;2022-07-06T06:07:40;17.20;99.90
34135;DHT22;20410;55.578;12.968;2022-07-06T06:10:07;17.20;99.90
34135;DHT22;20410;55.578;12.968;2022-07-06T06:12:33;17.30;99.90
34135;DHT22;20410;55.578;12.968;2022-07-06T06:14:59;17.30;99.90
34135;DHT22;20410;55.578;12.968;2022-07-06T06:17:25;17.40;99.90
34135;DHT22;20410;55.578;12.968;2022-07-06T06:19:50;17.40;99.90
34135;DHT22;20410;55.578;12.968;2022-07-06T06:22:16;17.40;99.90
34135;DHT22;20410;55.578;12.968;2022-07-06T06:24:41;17.40;99.90
34135;DHT22;20410;55.578;12.968;2022-07-06T06:27:07;17.50;99.90
34135;DHT22;20410;55.578;12.968;2022-07-06T06:29:33;17.40;99.90
34135;DHT22;20410;55.578;12.968;2022-07-06T06:31:58;17.40;99.90
34135;DHT22;20410;55.578;12.968;2022-07-06T06:34:24;17.40;99.90
34135;DHT22;20410;55.578;12.968;2022-07-06T06:36:50;17.50;99.90
34135;DHT22;20410;55.578;12.968;2022-07-06T06:39:15;17.60;99.90
34135;DHT22;20410;55.578;12.968;2022-07-06T06:41:41;17.70;99.90
34135;DHT22;20410;55.578;12.968;2022-07-06T06:44:07;17.50;99.90
34135;DHT22;20410;55.578;12.968;2022-07-06T06:46:32;17.40;99.90
34135;DHT22;20410;55.578;12.968;2022-07-06T06:48:58;17.40;99.90
34135;DHT22;20410;55.578;12.968;2022-07-06T06:51:24;17.50;99.90
34135;DHT22;20410;55.578;12.968;2022-07-06T06:53:49;17.50;99.90
34135;DHT22;20410;55.578;12.968;2022-07-06T06:56:15;17.70;99.90
34135;DHT22;20410;55.578;12.968;2022-07-06T06:58:41;17.70;99.90
34135;DHT22;20410;55.578;12.968;2022-07-06T07:01:06;17.90;99.90
34135;DHT22;20410;55.578;12.968;2022-07-06T07:03:32;18.10;99.90
34135;DHT22;20410;55.578;12.968;2022-07-06T07:05:58;18.20;99.90
34135;DHT22;20410;55.578;12.968;2022-07-06T07:08:23;18.10;99.90
34135;DHT22;20410;55.578;12.968;2022-07-06T07:10:49;18.10;99.90
34135;DHT22;20410;55.578;12.968;2022-07-06T07:13:14;18.10;99.90
34135;DHT22;20410;55.578;12.968;2022-07-06T07:15:40;18.10;99.90
34135;DHT22;20410;55.578;12.968;2022-07-06T07:18:06;18.00;99.90
34135;DHT22;20410;55.578;12.968;2022-07-06T07:20:31;18.00;99.90
34135;DHT22;20410;55.578;12.968;2022-07-06T07:23:02;18.20;99.90
34135;DHT22;20410;55.578;12.968;2022-07-06T07:25:27;18.40;99.90
34135;DHT22;20410;55.578;12.968;2022-07-06T07:27:53;18.60;99.90
34135;DHT22;20410;55.578;12.968;2022-07-06T07:30:19;18.60;99.90
34135;DHT22;20410;55.578;12.968;2022-07-06T07:32:45;18.60;99.90
34135;DHT22;20410;55.578;12.968;2022-07-06T07:35:11;18.50;99.90
34135;DHT22;20410;55.578;12.968;2022-07-06T07:37:37;18.30;99.90
34135;DHT22;20410;55.578;12.968;2022-07-06T07:40:03;18.40;99.90
34135;DHT22;20410;55.578;12.968;2022-07-06T07:42:29;18.60;99.90
34135;DHT22;20410;55.578;12.968;2022-07-06T07:44:55;19.00;99.90
34135;DHT22;20410;55.578;12.968;2022-07-06T07:47:21;19.20;99.90
34135;DHT22;20410;55.578;12.968;2022-07-06T07:49:46;19.20;99.90
34135;DHT22;20410;55.578;12.968;2022-07-06T07:52:12;19.30;99.90
34135;DHT22;20410;55.578;12.968;2022-07-06T07:54:37;19.50;99.90
34135;DHT22;20410;55.578;12.968;2022-07-06T07:57:04;19.30;99.90
34135;DHT22;20410;55.578;12.968;2022-07-06T07:59:29;19.50;99.90
34135;DHT22;20410;55.578;12.968;2022-07-06T08:01:55;19.60;99.90
34135;DHT22;20410;55.578;12.968;2022-07-06T08:04:21;19.70;99.90
34135;DHT22;20410;55.578;12.968;2022-07-06T08:06:47;19.60;99.90
34135;DHT22;20410;55.578;12.968;2022-07-06T08:09:13;19.50;99.90
34135;DHT22;20410;55.578;12.968;2022-07-06T08:11:39;19.40;99.90
34135;DHT22;20410;55.578;12.968;2022-07-06T08:14:05;19.40;99.90
34135;DHT22;20410;55.578;12.968;2022-07-06T08:16:31;19.60;99.90
34135;DHT22;20410;55.578;12.968;2022-07-06T08:18:57;19.60;99.90
34135;DHT22;20410;55.578;12.968;2022-07-06T08:21:22;19.40;99.90
34135;DHT22;20410;55.578;12.968;2022-07-06T08:23:48;19.40;99.90
34135;DHT22;20410;55.578;12.968;2022-07-06T08:26:14;19.60;99.90
34135;DHT22;20410;55.578;12.968;2022-07-06T08:28:40;19.50;99.90
34135;DHT22;20410;55.578;12.968;2022-07-06T08:31:05;19.40;99.90
34135;DHT22;20410;55.578;12.968;2022-07-06T08:33:31;19.40;99.90
34135;DHT22;20410;55.578;12.968;2022-07-06T08:35:57;19.40;99.90
34135;DHT22;20410;55.578;12.968;2022-07-06T08:38:22;19.40;99.90
34135;DHT22;20410;55.578;12.968;2022-07-06T08:40:49;19.40;99.90
34135;DHT22;20410;55.578;12.968;2022-07-06T08:43:16;19.60;99.90
34135;DHT22;20410;55.578;12.968;2022-07-06T08:45:42;19.90;99.90
34135;DHT22;20410;55.578;12.968;2022-07-06T08:48:11;20.00;99.90
34135;DHT22;20410;55.578;12.968;2022-07-06T08:50:37;20.10;99.90
34135;DHT22;20410;55.578;12.968;2022-07-06T08:53:04;20.30;99.90
34135;DHT22;20410;55.578;12.968;2022-07-06T08:55:30;20.50;99.90
34135;DHT22;20410;55.578;12.968;2022-07-06T08:57:56;20.50;99.90
34135;DHT22;20410;55.578;12.968;2022-07-06T09:00:23;20.50;99.90
34135;DHT22;20410;55.578;12.968;2022-07-06T09:02:50;20.60;99.90
34135;DHT22;20410;55.578;12.968;2022-07-06T09:05:17;20.80;99.90
34135;DHT22;20410;55.578;12.968;2022-07-06T09:07:45;20.90;99.90
34135;DHT22;20410;55.578;12.968;2022-07-06T09:10:13;21.00;99.90
34135;DHT22;20410;55.578;12.968;2022-07-06T09:12:38;21.00;99.90
34135;DHT22;20410;55.578;12.968;2022-07-06T09:15:04;20.90;99.90
34135;DHT22;20410;55.578;12.968;2022-07-06T09:17:30;20.90;99.90
34135;DHT22;20410;55.578;12.968;2022-07-06T09:19:56;21.00;99.90
34135;DHT22;20410;55.578;12.968;2022-07-06T09:22:32;21.00;99.90
34135;DHT22;20410;55.578;12.968;2022-07-06T09:25:16;20.80;99.90
34135;DHT22;20410;55.578;12.968;2022-07-06T09:27:46;20.70;99.90
34135;DHT22;20410;55.578;12.968;2022-07-06T09:30:21;20.90;99.90
34135;DHT22;20410;55.578;12.968;2022-07-06T09:32:50;20.90;99.90
34135;DHT22;20410;55.578;12.968;2022-07-06T09:35:37;21.00;99.90
34135;DHT22;20410;55.578;12.968;2022-07-06T09:38:07;20.80;99.90
34135;DHT22;20410;55.578;12.968;2022-07-06T09:40:39;20.60;99.90
34135;DHT22;20410;55.578;12.968;2022-07-06T09:43:17;20.30;99.90
34135;DHT22;20410;55.578;12.968;2022-07-06T09:45:55;19.80;99.90
34135;DHT22;20410;55.578;12.968;2022-07-06T09:48:26;19.50;99.90
34135;DHT22;20410;55.578;12.968;2022-07-06T09:50:57;19.30;99.90
34135;DHT22;20410;55.578;12.968;2022-07-06T09:53:24;19.20;99.90
34135;DHT22;20410;55.578;12.968;2022-07-06T09:55:53;19.10;99.90
34135;DHT22;20410;55.578;12.968;2022-07-06T09:58:19;19.20;99.90
34135;DHT22;20410;55.578;12.968;2022-07-06T10:00:46;19.40;99.90
34135;DHT22;20410;55.578;12.968;2022-07-06T10:03:12;19.40;99.90
34135;DHT22;20410;55.578;12.968;2022-07-06T10:05:44;19.50;99.90
34135;DHT22;20410;55.578;12.968;2022-07-06T10:08:13;19.20;99.90
34135;DHT22;20410;55.578;12.968;2022-07-06T10:10:40;18.90;99.90
34135;DHT22;20410;55.578;12.968;2022-07-06T10:13:07;19.00;99.90
34135;DHT22;20410;55.578;12.968;2022-07-06T10:15:38;19.40;99.90
34135;DHT22;20410;55.578;12.968;2022-07-06T10:18:06;19.60;99.90
34135;DHT22;20410;55.578;12.968;2022-07-06T10:20:36;19.60;99.90
34135;DHT22;20410;55.578;12.968;2022-07-06T10:23:04;19.60;99.90
34135;DHT22;20410;55.578;12.968;2022-07-06T10:25:32;19.50;99.90
34135;DHT22;20410;55.578;12.968;2022-07-06T10:27:58;19.30;99.90
34135;DHT22;20410;55.578;12.968;2022-07-06T10:30:24;19.20;99.90
34135;DHT22;20410;55.578;12.968;2022-07-06T10:32:51;19.10;99.90
34135;DHT22;20410;55.578;12.968;2022-07-06T10:35:20;19.50;99.90
34135;DHT22;20410;55.578;12.968;2022-07-06T10:38:05;19.90;99.90
34135;DHT22;20410;55.578;12.968;2022-07-06T10:40:35;20.00;99.90
34135;DHT22;20410;55.578;12.968;2022-07-06T10:43:20;20.00;99.90
34135;DHT22;20410;55.578;12.968;2022-07-06T10:50:45;19.70;99.90
34135;DHT22;20410;55.578;12.968;2022-07-06T10:53:13;19.80;99.90
34135;DHT22;20410;55.578;12.968;2022-07-06T10:55:46;19.80;99.90
34135;DHT22;20410;55.578;12.968;2022-07-06T10:58:13;19.70;99.90
34135;DHT22;20410;55.578;12.968;2022-07-06T11:00:58;19.40;99.90
34135;DHT22;20410;55.578;12.968;2022-07-06T11:06:16;19.20;99.90
34135;DHT22;20410;55.578;12.968;2022-07-06T11:08:46;19.30;99.90
34135;DHT22;20410;55.578;12.968;2022-07-06T11:11:13;19.20;99.90
34135;DHT22;20410;55.578;12.968;2022-07-06T11:13:53;19.20;99.90
34135;DHT22;20410;55.578;12.968;2022-07-06T11:16:21;19.20;99.90
34135;DHT22;20410;55.578;12.968;2022-07-06T11:19:12;19.40;99.90
34135;DHT22;20410;55.578;12.968;2022-07-06T11:21:39;19.20;99.90
34135;DHT22;20410;55.578;12.968;2022-07-06T11:24:08;19.30;99.90
34135;DHT22;20410;55.578;12.968;2022-07-06T11:26:35;19.50;99.90
34135;DHT22;20410;55.578;12.968;2022-07-06T11:29:04;19.60;99.90
34135;DHT22;20410;55.578;12.968;2022-07-06T11:31:34;19.50;99.90
34135;DHT22;20410;55.578;12.968;2022-07-06T11:34:00;19.40;99.90
34135;DHT22;20410;55.578;12.968;2022-07-06T11:36:26;19.20;99.90
34135;DHT22;20410;55.578;12.968;2022-07-06T11:38:51;19.30;99.90
34135;DHT22;20410;55.578;12.968;2022-07-06T11:41:17;19.40;99.90
34135;DHT22;20410;55.578;12.968;2022-07-06T11:43:44;19.40;99.90
34135;DHT22;20410;55.578;12.968;2022-07-06T11:46:35;19.60;99.90
34135;DHT22;20410;55.578;12.968;2022-07-06T11:49:01;19.70;99.90
34135;DHT22;20410;55.578;12.968;2022-07-06T11:51:30;19.70;99.90
34135;DHT22;20410;55.578;12.968;2022-07-06T11:53:57;19.60;99.90
34135;DHT22;20410;55.578;12.968;2022-07-06T11:56:28;19.80;99.90
34135;DHT22;20410;55.578;12.968;2022-07-06T11:58:56;20.00;99.90
34135;DHT22;20410;55.578;12.968;2022-07-06T12:01:24;20.00;99.90
34135;DHT22;20410;55.578;12.968;2022-07-06T12:03:50;19.70;99.90
34135;DHT22;20410;55.578;12.968;2022-07-06T12:06:21;19.50;99.90
34135;DHT22;20410;55.578;12.968;2022-07-06T12:08:52;19.30;99.90
34135;DHT22;20410;55.578;12.968;2022-07-06T12:11:27;19.30;99.90
34135;DHT22;20410;55.578;12.968;2022-07-06T12:13:56;19.30;99.90
34135;DHT22;20410;55.578;12.968;2022-07-06T12:16:32;19.30;99.90
34135;DHT22;20410;55.578;12.968;2022-07-06T12:19:00;19.50;99.90
34135;DHT22;20410;55.578;12.968;2022-07-06T12:21:26;19.60;99.90
34135;DHT22;20410;55.578;12.968;2022-07-06T12:23:52;19.60;99.90
34135;DHT22;20410;55.578;12.968;2022-07-06T12:26:19;19.70;99.90
34135;DHT22;20410;55.578;12.968;2022-07-06T12:28:53;19.80;99.90
34135;DHT22;20410;55.578;12.968;2022-07-06T12:31:37;19.70;99.90
34135;DHT22;20410;55.578;12.968;2022-07-06T12:34:04;19.70;99.90
34135;DHT22;20410;55.578;12.968;2022-07-06T12:36:30;19.80;99.90
34135;DHT22;20410;55.578;12.968;2022-07-06T12:38:56;19.90;99.90
34135;DHT22;20410;55.578;12.968;2022-07-06T12:41:30;20.10;99.90
34135;DHT22;20410;55.578;12.968;2022-07-06T12:44:05;20.10;99.90
34135;DHT22;20410;55.578;12.968;2022-07-06T12:46:39;20.00;99.90
34135;DHT22;20410;55.578;12.968;2022-07-06T12:49:16;19.80;99.90
34135;DHT22;20410;55.578;12.968;2022-07-06T12:51:53;19.40;99.90
34135;DHT22;20410;55.578;12.968;2022-07-06T12:54:20;19.50;99.90
34135;DHT22;20410;55.578;12.968;2022-07-06T12:59:31;19.60;99.90
34135;DHT22;20410;55.578;12.968;2022-07-06T13:01:57;19.70;99.90
34135;DHT22;20410;55.578;12.968;2022-07-06T13:04:25;19.80;99.90
34135;DHT22;20410;55.578;12.968;2022-07-06T13:06:51;20.00;99.90
34135;DHT22;20410;55.578;12.968;2022-07-06T13:09:16;20.00;99.90
34135;DHT22;20410;55.578;12.968;2022-07-06T13:11:42;20.10;99.90
34135;DHT22;20410;55.578;12.968;2022-07-06T13:14:08;20.10;99.90
34135;DHT22;20410;55.578;12.968;2022-07-06T13:16:36;20.10;99.90
34135;DHT22;20410;55.578;12.968;2022-07-06T13:19:02;20.20;99.90
34135;DHT22;20410;55.578;12.968;2022-07-06T13:21:28;20.10;99.90
34135;DHT22;20410;55.578;12.968;2022-07-06T13:23:53;20.10;99.90
34135;DHT22;20410;55.578;12.968;2022-07-06T13:26:19;20.00;99.90
34135;DHT22;20410;55.578;12.968;2022-07-06T13:28:44;19.90;99.90
34135;DHT22;20410;55.578;12.968;2022-07-06T13:31:10;19.80;99.90
34135;DHT22;20410;55.578;12.968;2022-07-06T13:33:36;19.80;99.90
34135;DHT22;20410;55.578;12.968;2022-07-06T13:36:02;19.70;99.90
34135;DHT22;20410;55.578;12.968;2022-07-06T13:38:28;19.70;99.90
34135;DHT22;20410;55.578;12.968;2022-07-06T13:40:54;20.00;99.90
34135;DHT22;20410;55.578;12.968;2022-07-06T13:43:19;20.20;99.90
34135;DHT22;20410;55.578;12.968;2022-07-06T13:45:46;20.60;99.90
34135;DHT22;20410;55.578;12.968;2022-07-06T13:48:12;21.00;99.90
34135;DHT22;20410;55.578;12.968;2022-07-06T13:50:37;21.10;99.90
34135;DHT22;20410;55.578;12.968;2022-07-06T13:53:04;21.30;99.90
34135;DHT22;20410;55.578;12.968;2022-07-06T13:55:30;21.00;99.90
34135;DHT22;20410;55.578;12.968;2022-07-06T13:57:56;20.70;99.90
34135;DHT22;20410;55.578;12.968;2022-07-06T14:00:21;20.50;99.90
34135;DHT22;20410;55.578;12.968;2022-07-06T14:02:48;20.40;99.90
34135;DHT22;20410;55.578;12.968;2022-07-06T14:05:13;20.40;99.90
34135;DHT22;20410;55.578;12.968;2022-07-06T14:07:39;20.30;99.90
34135;DHT22;20410;55.578;12.968;2022-07-06T14:10:05;20.20;99.90
34135;DHT22;20410;55.578;12.968;2022-07-06T14:12:30;20.20;99.90
34135;DHT22;20410;55.578;12.968;2022-07-06T14:14:56;20.10;99.90
34135;DHT22;20410;55.578;12.968;2022-07-06T14:17:22;20.10;99.90
34135;DHT22;20410;55.578;12.968;2022-07-06T14:19:49;19.90;99.90
34135;DHT22;20410;55.578;12.968;2022-07-06T14:22:14;19.70;99.90
34135;DHT22;20410;55.578;12.968;2022-07-06T14:24:40;19.50;99.90
34135;DHT22;20410;55.578;12.968;2022-07-06T14:27:06;19.30;99.90
34135;DHT22;20410;55.578;12.968;2022-07-06T14:29:31;19.20;99.90
34135;DHT22;20410;55.578;12.968;2022-07-06T14:31:57;19.20;99.90
34135;DHT22;20410;55.578;12.968;2022-07-06T14:34:23;19.30;99.90
34135;DHT22;20410;55.578;12.968;2022-07-06T14:36:50;19.20;99.90
34135;DHT22;20410;55.578;12.968;2022-07-06T14:39:15;19.10;99.90
34135;DHT22;20410;55.578;12.968;2022-07-06T14:41:41;19.20;99.90
34135;DHT22;20410;55.578;12.968;2022-07-06T14:44:06;19.20;99.90
34135;DHT22;20410;55.578;12.968;2022-07-06T14:46:32;19.20;99.90
34135;DHT22;20410;55.578;12.968;2022-07-06T14:49:00;19.30;99.90
34135;DHT22;20410;55.578;12.968;2022-07-06T14:51:25;19.40;99.90
34135;DHT22;20410;55.578;12.968;2022-07-06T14:53:51;19.30;99.90
34135;DHT22;20410;55.578;12.968;2022-07-06T14:56:16;19.20;99.90
34135;DHT22;20410;55.578;12.968;2022-07-06T14:58:42;19.40;99.90
34135;DHT22;20410;55.578;12.968;2022-07-06T15:01:07;19.40;99.90
34135;DHT22;20410;55.578;12.968;2022-07-06T15:03:33;19.30;99.90
34135;DHT22;20410;55.578;12.968;2022-07-06T15:05:58;19.40;99.90
34135;DHT22;20410;55.578;12.968;2022-07-06T15:08:24;19.40;99.90
34135;DHT22;20410;55.578;12.968;2022-07-06T15:10:50;19.50;99.90
34135;DHT22;20410;55.578;12.968;2022-07-06T15:13:16;19.50;99.90
34135;DHT22;20410;55.578;12.968;2022-07-06T15:15:41;19.50;99.90
34135;DHT22;20410;55.578;12.968;2022-07-06T15:18:07;19.40;99.90
34135;DHT22;20410;55.578;12.968;2022-07-06T15:20:33;19.40;99.90
34135;DHT22;20410;55.578;12.968;2022-07-06T15:22:59;19.40;99.90
34135;DHT22;20410;55.578;12.968;2022-07-06T15:25:25;19.50;99.90